Time;durP1;ratioP1;P1;durP2;ratioP2;P2;SDS_P1;SDS_P2;PMS_P1;PMS_P2;Temp;Humidity;BMP_temperature;BMP_pressure;BME280_temperature;BME280_humidity;BME280_pressure;Samples;Min_cycle;Max_cycle;Signal;HPM_P1;HPM_P2
2021/06/22 00:00:49;;;;;;;15.80;5.13;;;;;;;25.25;43.98;100275.84;5089942;28;20201;-57
2021/06/22 00:03:14;;;;;;;8.10;4.80;;;;;;;25.20;44.22;100278.38;5089314;28;20077;-55
2021/06/22 00:05:40;;;;;;;10.65;5.15;;;;;;;25.17;44.21;100281.53;5088970;28;20057;-57
2021/06/22 00:08:06;;;;;;;16.35;5.80;;;;;;;25.14;44.67;100281.97;5089685;28;20056;-57
2021/06/22 00:10:32;;;;;;;9.43;4.95;;;;;;;25.08;44.79;100292.69;5089771;28;20036;-59
2021/06/22 00:12:58;;;;;;;13.65;6.05;;;;;;;24.96;44.88;100286.13;5089131;28;20059;-57
2021/06/22 00:15:26;;;;;;;11.88;6.00;;;;;;;24.94;45.09;100269.06;5089086;28;20047;-57
2021/06/22 00:17:52;;;;;;;11.95;5.85;;;;;;;24.97;45.17;100282.34;5089503;28;20036;-58
2021/06/22 00:20:18;;;;;;;10.77;5.80;;;;;;;24.91;45.42;100283.19;5089556;28;20039;-58
2021/06/22 00:22:44;;;;;;;15.73;5.55;;;;;;;24.90;45.34;100289.72;5091866;28;20385;-55
2021/06/22 00:25:13;;;;;;;14.65;5.68;;;;;;;24.72;45.83;100263.72;5093014;28;20024;-57
2021/06/22 00:27:39;;;;;;;16.60;5.90;;;;;;;24.80;45.47;100293.66;5093441;28;20036;-55
2021/06/22 00:30:06;;;;;;;15.70;5.80;;;;;;;24.74;45.95;100293.66;5093481;28;20125;-56
2021/06/22 00:32:32;;;;;;;9.48;5.47;;;;;;;24.75;46.16;100301.66;5093084;28;20692;-58
2021/06/22 00:34:57;;;;;;;11.05;5.75;;;;;;;24.70;46.35;100297.81;5093356;28;20032;-56
2021/06/22 00:37:23;;;;;;;13.85;5.65;;;;;;;24.65;46.46;100299.28;5093137;28;20414;-57
2021/06/22 00:39:49;;;;;;;10.45;5.18;;;;;;;24.51;46.39;100273.75;5093154;28;20036;-57
2021/06/22 00:42:14;;;;;;;13.10;6.28;;;;;;;24.57;46.50;100296.75;5107589;28;20046;-59
2021/06/22 00:44:58;;;;;;;11.52;6.38;;;;;;;24.57;46.69;100293.16;5112456;28;20157;-59
2021/06/22 00:47:25;;;;;;;8.75;5.38;;;;;;;24.54;46.58;100288.09;5106723;28;20040;-58
2021/06/22 00:49:52;;;;;;;13.15;6.07;;;;;;;24.45;46.55;100274.59;5092591;28;20491;-59
2021/06/22 00:52:23;;;;;;;9.70;5.90;;;;;;;24.56;46.85;100296.94;5092294;28;20040;-57
2021/06/22 00:54:49;;;;;;;10.85;5.95;;;;;;;24.51;46.59;100294.84;5092084;28;20063;-58
2021/06/22 00:57:15;;;;;;;17.83;6.30;;;;;;;24.06;46.80;100222.25;5092051;28;20028;-57
2021/06/22 00:59:41;;;;;;;13.45;6.03;;;;;;;24.49;46.82;100292.28;5092595;28;20085;-57
2021/06/22 01:02:07;;;;;;;13.07;5.95;;;;;;;24.49;46.87;100296.94;5092595;28;20032;-58
2021/06/22 01:04:34;;;;;;;15.75;6.75;;;;;;;24.42;46.88;100285.94;5092494;28;20115;-55
2021/06/22 01:07:01;;;;;;;12.68;6.10;;;;;;;24.54;47.03;100293.56;5092975;28;20092;-57
2021/06/22 01:09:28;;;;;;;15.50;6.40;;;;;;;24.56;46.64;100289.59;5092053;28;20097;-54
2021/06/22 01:11:55;;;;;;;16.63;6.20;;;;;;;24.61;47.03;100305.41;5092383;28;20711;-56
2021/06/22 01:14:21;;;;;;;11.20;6.38;;;;;;;24.63;46.84;100297.81;5092339;28;20503;-55
2021/06/22 01:16:47;;;;;;;15.82;6.75;;;;;;;24.64;46.78;100308.56;5092458;28;20039;-57
2021/06/22 01:19:13;;;;;;;14.80;6.47;;;;;;;24.68;46.84;100287.09;5092247;28;20445;-55
2021/06/22 01:21:39;;;;;;;15.25;6.18;;;;;;;24.69;46.91;100304.34;5092449;28;20054;-56
2021/06/22 01:24:11;;;;;;;16.52;6.97;;;;;;;24.69;46.89;100293.41;5092314;28;20100;-57
2021/06/22 01:26:50;;;;;;;19.30;7.18;;;;;;;24.78;47.10;100304.00;5092118;28;20032;-54
2021/06/22 01:29:16;;;;;;;18.13;7.07;;;;;;;24.39;46.67;100238.97;5092068;28;20376;-58
2021/06/22 01:31:42;;;;;;;18.48;7.28;;;;;;;24.67;46.86;100274.47;5091878;28;20165;-54
2021/06/22 01:34:08;;;;;;;18.85;7.53;;;;;;;24.76;46.88;100294.31;5091834;28;20498;-53
2021/06/22 01:36:35;;;;;;;20.25;7.78;;;;;;;24.86;46.95;100302.13;5092614;28;20076;-56
2021/06/22 01:39:04;;;;;;;17.10;7.55;;;;;;;24.77;47.14;100283.13;5092231;28;20119;-60
2021/06/22 01:41:30;;;;;;;16.85;8.40;;;;;;;24.78;46.92;100276.63;5091547;28;20131;-56
2021/06/22 01:43:55;;;;;;;16.52;8.10;;;;;;;24.82;47.17;100287.16;5091925;28;20036;-58
2021/06/22 01:46:20;;;;;;;16.02;8.57;;;;;;;24.90;47.38;100297.94;5092183;28;20035;-60
2021/06/22 01:48:46;;;;;;;14.73;8.07;;;;;;;24.99;47.25;100312.28;5091335;28;20044;-57
2021/06/22 01:51:12;;;;;;;17.27;8.68;;;;;;;24.95;47.15;100300.88;5091317;28;20078;-56
2021/06/22 01:53:38;;;;;;;16.15;7.78;;;;;;;25.04;47.29;100304.28;5091880;28;20040;-57
2021/06/22 01:56:04;;;;;;;16.38;8.10;;;;;;;24.75;46.87;100262.50;5092393;28;20916;-57
2021/06/22 01:58:29;;;;;;;16.83;8.02;;;;;;;25.08;46.92;100311.88;5091302;28;20093;-56
2021/06/22 02:00:58;;;;;;;21.77;9.27;;;;;;;25.14;47.19;100328.53;5091496;28;20063;-55
2021/06/22 02:03:26;;;;;;;15.38;8.30;;;;;;;25.16;46.88;100318.22;5091611;28;20177;-57
2021/06/22 02:05:51;;;;;;;11.55;7.72;;;;;;;25.15;46.73;100313.78;5091592;28;20556;-55
2021/06/22 02:08:18;;;;;;;13.98;7.95;;;;;;;25.27;46.55;100323.06;5091363;28;20126;-58
2021/06/22 02:10:45;;;;;;;17.95;7.88;;;;;;;25.33;46.48;100330.47;5090863;28;20032;-58
2021/06/22 02:13:11;;;;;;;16.13;8.52;;;;;;;25.40;46.58;100326.88;5091292;28;20052;-56
2021/06/22 02:15:38;;;;;;;14.73;8.05;;;;;;;25.46;46.25;100328.75;5092064;28;20044;-58
2021/06/22 02:18:04;;;;;;;18.48;8.30;;;;;;;25.47;46.13;100314.03;5091254;28;20135;-56
2021/06/22 02:20:30;;;;;;;16.48;8.60;;;;;;;25.68;45.69;100315.72;5090947;28;20035;-58
2021/06/22 02:22:56;;;;;;;23.73;9.10;;;;;;;25.89;45.59;100325.63;5091616;28;20028;-58
2021/06/22 02:25:21;;;;;;;17.73;8.77;;;;;;;26.11;44.82;100324.50;5091477;28;20055;-54
2021/06/22 02:27:47;;;;;;;15.65;8.52;;;;;;;25.90;44.25;100264.22;5090969;28;20035;-57
2021/06/22 02:30:16;;;;;;;17.58;7.82;;;;;;;26.53;44.06;100332.47;5090643;28;20125;-58
2021/06/22 02:32:41;;;;;;;14.43;8.10;;;;;;;26.75;43.14;100335.72;5091301;28;20131;-56
2021/06/22 02:35:09;;;;;;;16.23;8.50;;;;;;;27.02;42.78;100336.47;5091746;28;20107;-56
2021/06/22 02:37:36;;;;;;;13.57;8.10;;;;;;;27.33;42.40;100348.53;5090922;28;20032;-52
2021/06/22 02:40:04;;;;;;;12.85;8.00;;;;;;;27.67;41.29;100336.44;5090611;28;20039;-59
2021/06/22 02:42:30;;;;;;;14.13;7.63;;;;;;;28.11;40.40;100330.94;5089723;28;20446;-58
2021/06/22 02:44:55;;;;;;;15.02;7.57;;;;;;;28.44;39.86;100336.09;5090158;28;20121;-54
2021/06/22 02:47:21;;;;;;;16.65;8.48;;;;;;;28.63;39.33;100328.66;5090449;28;20484;-57
2021/06/22 02:49:46;;;;;;;21.48;8.38;;;;;;;28.81;39.05;100328.88;5090262;28;20396;-54
2021/06/22 02:52:12;;;;;;;17.67;8.93;;;;;;;28.85;39.03;100330.09;5090432;28;20043;-52
2021/06/22 02:54:38;;;;;;;18.45;8.50;;;;;;;28.96;38.44;100331.22;5090709;28;20035;-55
2021/06/22 02:57:08;;;;;;;16.45;8.05;;;;;;;29.21;37.98;100340.16;5090540;28;20040;-52
2021/06/22 02:59:35;;;;;;;17.50;8.35;;;;;;;29.53;37.42;100335.47;5090027;28;20044;-54
2021/06/22 03:02:01;;;;;;;18.23;8.48;;;;;;;29.90;36.82;100333.34;5090285;28;20032;-56
2021/06/22 03:04:27;;;;;;;18.40;8.40;;;;;;;30.29;35.56;100321.81;5090264;28;20032;-57
2021/06/22 03:06:52;;;;;;;18.98;8.25;;;;;;;30.72;34.71;100325.19;5089918;28;20165;-57
2021/06/22 03:09:18;;;;;;;18.40;8.82;;;;;;;31.03;34.04;100325.75;5090238;28;20048;-55
2021/06/22 03:11:43;;;;;;;18.58;8.48;;;;;;;31.31;33.62;100320.47;5089599;28;20060;-57
2021/06/22 03:14:09;;;;;;;17.02;8.10;;;;;;;31.64;33.19;100319.63;5090213;28;20040;-57
2021/06/22 03:16:35;;;;;;;15.52;7.95;;;;;;;32.07;32.39;100317.25;5090916;28;20035;-59
2021/06/22 03:19:00;;;;;;;16.40;6.93;;;;;;;32.21;31.96;100301.06;5089964;28;20400;-57
2021/06/22 03:21:26;;;;;;;13.93;7.40;;;;;;;32.61;31.56;100312.13;5089934;28;20036;-55
2021/06/22 03:23:51;;;;;;;17.35;7.70;;;;;;;32.89;30.75;100311.06;5090523;28;20123;-58
2021/06/22 03:26:17;;;;;;;15.70;7.60;;;;;;;33.20;30.41;100333.56;5090123;28;20040;-57
2021/06/22 03:28:42;;;;;;;16.70;7.30;;;;;;;33.54;29.84;100321.41;5089890;28;20028;-60
2021/06/22 03:31:08;;;;;;;14.07;6.88;;;;;;;33.89;29.22;100325.50;5090029;28;20040;-58
2021/06/22 03:33:33;;;;;;;14.18;7.07;;;;;;;34.01;28.30;100285.63;5089856;28;20228;-59
2021/06/22 03:35:59;;;;;;;15.95;7.53;;;;;;;34.33;27.81;100282.69;5089463;28;20040;-57
2021/06/22 03:38:24;;;;;;;13.93;7.05;;;;;;;34.83;27.41;100318.44;5089645;28;20067;-57
2021/06/22 03:40:50;;;;;;;14.95;6.93;;;;;;;35.08;26.79;100321.59;5090383;28;20043;-56
2021/06/22 03:43:15;;;;;;;14.30;6.43;;;;;;;35.20;26.54;100288.75;5089797;28;20115;-57
2021/06/22 03:45:41;;;;;;;14.07;7.25;;;;;;;35.76;25.95;100334.41;5089603;28;20089;-56
2021/06/22 03:48:07;;;;;;;14.25;7.47;;;;;;;36.02;25.93;100343.56;5101769;28;20063;-58
2021/06/22 03:50:33;;;;;;;17.42;7.03;;;;;;;36.17;25.07;100317.63;5110152;28;20047;-57
2021/06/22 03:52:58;;;;;;;12.30;6.38;;;;;;;36.20;24.77;100271.59;5109845;28;20028;-58
2021/06/22 03:55:27;;;;;;;16.08;6.43;;;;;;;36.96;23.75;100344.03;5109054;28;20466;-59
2021/06/22 03:57:55;;;;;;;9.93;5.97;;;;;;;37.34;23.54;100324.78;5109628;28;20119;-58
2021/06/22 04:00:21;;;;;;;9.95;6.18;;;;;;;37.81;22.95;100335.53;5110387;28;20069;-58
2021/06/22 04:02:47;;;;;;;15.82;5.68;;;;;;;38.15;22.10;100334.66;5109926;28;20120;-57
2021/06/22 04:05:13;;;;;;;13.75;5.55;;;;;;;38.53;21.54;100333.09;5109498;28;20047;-57
2021/06/22 04:07:39;;;;;;;11.20;5.70;;;;;;;38.88;21.08;100339.31;5110115;28;20035;-55
2021/06/22 04:10:05;;;;;;;14.18;5.90;;;;;;;39.11;20.82;100339.56;5109914;28;20039;-56
2021/06/22 04:12:31;;;;;;;16.98;5.65;;;;;;;39.39;20.47;100337.72;5109742;28;20048;-57
2021/06/22 04:14:57;;;;;;;11.85;5.80;;;;;;;39.65;19.81;100328.03;5109441;28;20111;-57
2021/06/22 04:17:22;;;;;;;12.27;5.40;;;;;;;40.12;19.54;100326.03;5109772;28;20607;-60
2021/06/22 04:19:48;;;;;;;9.68;5.18;;;;;;;40.62;18.96;100341.28;5110388;28;20475;-59
2021/06/22 04:22:13;;;;;;;15.52;5.47;;;;;;;40.99;18.89;100339.31;5109702;28;20027;-55
2021/06/22 04:24:39;;;;;;;10.10;5.25;;;;;;;41.47;18.01;100345.47;5109674;28;20031;-56
2021/06/22 04:27:04;;;;;;;11.98;5.53;;;;;;;42.01;17.49;100339.00;5109462;28;20031;-57
2021/06/22 04:29:30;;;;;;;12.45;5.65;;;;;;;42.60;17.09;100340.69;5109714;28;20383;-56
2021/06/22 04:31:55;;;;;;;8.80;5.40;;;;;;;43.11;16.13;100338.25;5109446;28;20040;-58
2021/06/22 04:34:22;;;;;;;7.80;4.63;;;;;;;43.27;15.73;100343.34;5109572;28;20082;-59
2021/06/22 04:36:47;;;;;;;9.40;4.55;;;;;;;43.55;15.31;100317.66;5109338;28;20510;-59
2021/06/22 04:39:13;;;;;;;7.93;4.57;;;;;;;43.95;15.00;100296.78;5110439;28;20035;-58
2021/06/22 04:41:38;;;;;;;8.23;5.05;;;;;;;44.59;14.70;100325.97;5109295;28;20034;-58
2021/06/22 04:44:04;;;;;;;9.45;4.85;;;;;;;45.06;14.22;100341.06;5109569;28;20437;-52
2021/06/22 04:46:30;;;;;;;9.32;4.82;;;;;;;45.33;13.67;100331.19;5109334;28;20046;-59
2021/06/22 04:48:55;;;;;;;7.50;4.55;;;;;;;45.57;13.31;100329.59;5090270;28;20043;-56
2021/06/22 04:51:21;;;;;;;9.85;5.22;;;;;;;45.89;13.27;100334.72;5089099;28;20036;-58
2021/06/22 04:53:46;;;;;;;9.07;4.10;;;;;;;46.28;12.37;100347.38;5088587;28;20036;-60
2021/06/22 04:56:13;;;;;;;5.90;3.83;;;;;;;46.61;11.91;100336.22;5088959;28;20034;-55
2021/06/22 04:58:39;;;;;;;4.97;3.83;;;;;;;47.10;11.74;100336.09;5089033;28;20127;-58
2021/06/22 05:01:05;;;;;;;8.63;4.70;;;;;;;47.34;11.19;100327.84;5088672;28;20201;-57
2021/06/22 05:03:32;;;;;;;8.25;3.75;;;;;;;47.80;11.04;100350.13;5088867;28;20096;-58
2021/06/22 05:05:58;;;;;;;4.45;3.47;;;;;;;48.33;10.47;100349.00;5089036;28;20051;-59
2021/06/22 05:08:24;;;;;;;8.38;3.38;;;;;;;48.49;9.77;100318.56;5090836;28;20120;-58
2021/06/22 05:10:49;;;;;;;4.78;3.15;;;;;;;49.02;10.08;100345.69;5092755;28;20119;-60
2021/06/22 05:13:14;;;;;;;6.90;3.10;;;;;;;49.13;9.36;100355.25;5092590;28;20056;-58
2021/06/22 05:15:40;;;;;;;5.45;3.00;;;;;;;49.43;9.16;100350.94;5092678;28;20225;-57
2021/06/22 05:18:06;;;;;;;5.53;3.22;;;;;;;49.84;9.06;100351.28;5092479;28;20077;-59
2021/06/22 05:20:31;;;;;;;5.70;2.92;;;;;;;49.82;9.09;100347.19;5092364;28;20538;-57
2021/06/22 05:22:57;;;;;;;4.82;3.03;;;;;;;50.06;8.58;100334.59;5092421;28;20469;-58
2021/06/22 05:25:22;;;;;;;6.32;2.83;;;;;;;50.57;8.46;100360.16;5091859;28;20731;-59
2021/06/22 05:27:48;;;;;;;8.27;3.10;;;;;;;50.90;8.12;100348.00;5092564;28;20040;-57
2021/06/22 05:30:14;;;;;;;5.28;2.53;;;;;;;51.36;7.93;100346.09;5092322;28;20040;-58
2021/06/22 05:32:39;;;;;;;7.32;3.15;;;;;;;51.74;7.50;100341.19;5091860;28;20662;-59
2021/06/22 05:35:05;;;;;;;5.88;3.50;;;;;;;51.80;7.40;100335.94;5092173;28;20028;-58
2021/06/22 05:37:31;;;;;;;5.53;2.90;;;;;;;52.00;7.07;100350.78;5092354;28;20032;-57
2021/06/22 05:39:57;;;;;;;5.18;3.00;;;;;;;52.27;7.11;100341.16;5091448;28;20420;-59
2021/06/22 05:42:22;;;;;;;7.38;2.80;;;;;;;52.52;6.71;100342.16;5091973;28;20036;-58
2021/06/22 05:44:48;;;;;;;4.82;3.30;;;;;;;52.66;6.43;100341.41;5092153;28;20035;-58
2021/06/22 05:47:13;;;;;;;5.00;3.20;;;;;;;52.68;6.42;100336.13;5096124;28;20036;-58
2021/06/22 05:49:39;;;;;;;7.15;3.25;;;;;;;52.83;6.23;100327.63;5111860;28;20041;-57
2021/06/22 05:52:05;;;;;;;6.50;3.17;;;;;;;53.04;6.81;100343.19;5112070;28;20043;-58
2021/06/22 05:54:30;;;;;;;5.40;3.33;;;;;;;53.72;6.36;100347.44;5112363;28;20570;-59
2021/06/22 05:56:55;;;;;;;8.85;3.75;;;;;;;54.12;6.39;100319.56;5112572;28;20039;-59
2021/06/22 05:59:21;;;;;;;5.90;3.70;;;;;;;54.50;5.90;100334.22;5112016;28;20035;-59
2021/06/22 06:01:46;;;;;;;12.23;3.95;;;;;;;54.78;5.83;100337.41;5112200;28;20080;-59
2021/06/22 06:04:12;;;;;;;6.95;4.03;;;;;;;55.07;5.55;100331.53;5112368;28;20076;-58
2021/06/22 06:06:37;;;;;;;9.82;4.93;;;;;;;55.72;5.40;100330.25;5112157;28;20042;-59
2021/06/22 06:09:03;;;;;;;6.57;4.80;;;;;;;56.29;5.31;100334.63;5111061;28;20115;-59
2021/06/22 06:11:29;;;;;;;6.80;4.72;;;;;;;56.47;5.21;100333.63;5111555;28;20066;-60
2021/06/22 06:13:54;;;;;;;7.80;4.22;;;;;;;56.81;4.84;100332.75;5112097;28;20108;-57
2021/06/22 06:16:20;;;;;;;7.88;4.78;;;;;;;56.95;4.62;100328.06;5112031;28;20031;-59
2021/06/22 06:18:46;;;;;;;6.57;5.53;;;;;;;57.20;4.90;100330.56;5111289;28;20084;-58
2021/06/22 06:21:12;;;;;;;10.85;5.28;;;;;;;57.18;4.63;100325.28;5111134;28;20031;-57
2021/06/22 06:23:41;;;;;;;6.50;5.10;;;;;;;57.20;4.84;100337.16;5111684;28;20588;-57
2021/06/22 06:26:09;;;;;;;9.00;5.10;;;;;;;57.51;4.28;100324.72;5111959;28;20034;-57
2021/06/22 06:28:45;;;;;;;7.43;4.88;;;;;;;57.69;4.18;100274.69;5111008;28;20098;-59
2021/06/22 06:31:10;;;;;;;7.40;5.50;;;;;;;58.74;4.22;100327.34;5111248;28;20096;-59
2021/06/22 06:33:36;;;;;;;9.10;5.75;;;;;;;59.02;3.40;100325.09;5111397;28;20035;-58
2021/06/22 06:36:01;;;;;;;8.93;5.97;;;;;;;58.48;3.97;100299.03;5111427;28;20035;-58
2021/06/22 06:38:27;;;;;;;8.02;5.32;;;;;;;58.81;3.82;100326.38;5111189;28;20258;-58
2021/06/22 06:40:52;;;;;;;10.88;5.95;;;;;;;58.58;3.93;100331.00;5110412;28;20043;-61
2021/06/22 06:43:18;;;;;;;6.90;5.80;;;;;;;58.23;4.03;100311.13;5111194;28;20108;-61
2021/06/22 06:45:43;;;;;;;7.03;5.85;;;;;;;58.15;4.29;100312.50;5110828;28;20031;-61
2021/06/22 06:48:09;;;;;;;7.50;6.13;;;;;;;58.32;3.53;100296.91;5099434;28;20095;-62
2021/06/22 06:50:34;;;;;;;9.27;5.78;;;;;;;58.33;3.94;100304.31;5090833;28;20313;-62
2021/06/22 06:53:00;;;;;;;8.00;5.70;;;;;;;58.18;3.74;100262.63;5109723;28;20043;-62
2021/06/22 06:55:28;;;;;;;8.65;5.90;;;;;;;58.20;3.68;100284.00;5110078;28;20066;-62
2021/06/22 06:58:00;;;;;;;7.55;6.22;;;;;;;58.26;4.16;100320.97;5110431;28;20043;-63
2021/06/22 07:00:27;;;;;;;9.25;6.15;;;;;;;58.39;3.96;100307.50;5102292;28;20529;-62
2021/06/22 07:02:52;;;;;;;9.07;6.10;;;;;;;58.88;3.37;100309.75;5095028;28;20377;-61
2021/06/22 07:05:19;;;;;;;9.18;6.28;;;;;;;58.98;3.13;100318.59;5096737;28;20046;-62
2021/06/22 07:07:44;;;;;;;10.20;6.25;;;;;;;59.08;3.06;100308.84;5097646;28;20020;-62
2021/06/22 07:10:10;;;;;;;9.07;6.30;;;;;;;59.22;3.04;100315.56;5096676;27;20047;-61
2021/06/22 07:12:37;;;;;;;9.98;6.55;;;;;;;59.24;2.87;100310.16;5094925;28;20048;-61
2021/06/22 07:15:03;;;;;;;7.88;6.85;;;;;;;59.47;3.36;100309.97;5090969;28;20169;-62
2021/06/22 07:17:30;;;;;;;9.13;6.35;;;;;;;59.75;3.27;100290.28;5090675;28;20527;-62
2021/06/22 07:19:55;;;;;;;12.13;7.15;;;;;;;59.97;3.23;100291.75;5091031;28;20035;-61
2021/06/22 07:22:21;;;;;;;10.15;7.57;;;;;;;60.31;2.74;100302.75;5091757;28;20035;-61
2021/06/22 07:24:46;;;;;;;13.55;7.35;;;;;;;60.52;2.62;100297.59;5098954;28;20024;-62
2021/06/22 07:27:12;;;;;;;13.60;8.53;;;;;;;60.44;2.88;100296.19;5099429;28;20034;-61
2021/06/22 07:29:38;;;;;;;9.13;7.78;;;;;;;60.46;2.49;100302.31;5097357;28;20342;-61
2021/06/22 07:32:03;;;;;;;10.60;7.65;;;;;;;60.40;2.98;100295.50;5097757;28;20126;-61
2021/06/22 07:34:29;;;;;;;11.52;7.78;;;;;;;60.55;2.58;100290.91;5089874;28;20428;-60
2021/06/22 07:36:54;;;;;;;11.40;8.40;;;;;;;60.85;2.27;100293.69;5087873;28;20061;-61
2021/06/22 07:39:20;;;;;;;11.50;8.77;;;;;;;61.13;2.59;100294.03;5089825;28;20043;-61
2021/06/22 07:41:45;;;;;;;13.45;10.20;;;;;;;61.27;2.11;100290.69;5098002;28;20382;-68
2021/06/22 07:44:11;;;;;;;11.95;9.88;;;;;;;61.37;2.21;100296.56;5109941;28;20040;-62
2021/06/22 07:46:36;;;;;;;12.13;10.90;;;;;;;61.36;2.49;100304.44;5099806;28;20035;-62
2021/06/22 07:49:02;;;;;;;11.77;10.68;;;;;;;60.74;2.53;100300.66;5096135;28;20417;-63
2021/06/22 07:51:27;;;;;;;12.10;10.90;;;;;;;60.52;2.45;100293.91;5098742;28;20032;-63
2021/06/22 07:53:53;;;;;;;12.18;10.65;;;;;;;60.54;3.28;100297.97;5099642;28;20536;-62
2021/06/22 07:56:18;;;;;;;12.57;8.02;;;;;;;60.83;2.36;100291.28;5097509;28;20470;-62
2021/06/22 07:58:44;;;;;;;17.90;8.80;;;;;;;61.03;2.49;100291.06;5098634;28;20024;-64
2021/06/22 08:01:09;;;;;;;10.80;9.27;;;;;;;61.16;2.03;100296.81;5097495;28;21330;-60
2021/06/22 08:03:36;;;;;;;11.25;10.15;;;;;;;61.07;2.55;100302.53;5099330;28;20032;-62
2021/06/22 08:06:02;;;;;;;12.18;11.00;;;;;;;60.76;2.68;100303.06;5097287;28;20119;-59
2021/06/22 08:08:27;;;;;;;10.82;9.30;;;;;;;60.29;2.74;100290.81;5097939;28;20503;-61
2021/06/22 08:10:56;;;;;;;10.43;9.33;;;;;;;59.72;2.64;100301.94;5099467;28;20032;-60
2021/06/22 08:13:24;;;;;;;12.02;8.88;;;;;;;59.39;2.66;100288.31;5097344;28;20339;-61
2021/06/22 08:15:50;;;;;;;10.00;8.02;;;;;;;58.67;2.88;100282.19;5097843;28;20138;-62
2021/06/22 08:18:16;;;;;;;10.45;7.38;;;;;;;57.98;3.23;100295.13;5096844;28;20032;-62
2021/06/22 08:20:43;;;;;;;9.32;6.88;;;;;;;56.98;3.44;100304.22;5097477;28;20058;-61
2021/06/22 08:23:10;;;;;;;8.05;5.72;;;;;;;55.75;3.96;100295.78;5095242;28;20051;-61
2021/06/22 08:25:36;;;;;;;9.30;4.70;;;;;;;54.06;5.01;100293.44;5098072;28;20088;-62
2021/06/22 08:28:02;;;;;;;9.77;4.80;;;;;;;51.07;6.26;100166.97;5094094;28;20028;-63
2021/06/22 08:30:28;;;;;;;7.82;3.20;;;;;;;49.61;7.58;100293.59;5096882;28;20039;-63
2021/06/22 08:32:54;;;;;;;8.82;3.17;;;;;;;47.18;8.86;100228.59;5095432;28;20028;-61
2021/06/22 08:35:21;;;;;;;9.07;3.15;;;;;;;45.96;10.06;100282.03;5096876;28;20047;-62
2021/06/22 08:37:46;;;;;;;8.10;3.25;;;;;;;44.63;10.61;100278.94;5098486;28;20024;-60
2021/06/22 08:40:13;;;;;;;10.77;3.00;;;;;;;43.67;11.92;100291.56;5097838;28;20032;-62
2021/06/22 08:42:40;;;;;;;10.30;2.90;;;;;;;42.72;12.54;100290.22;5097597;28;20032;-62
2021/06/22 08:45:09;;;;;;;9.55;3.13;;;;;;;41.94;13.48;100279.56;5092302;28;20114;-62
2021/06/22 08:47:35;;;;;;;9.18;3.60;;;;;;;41.51;13.69;100289.47;5097454;28;20032;-65
2021/06/22 08:50:00;;;;;;;11.90;3.47;;;;;;;40.98;14.41;100298.34;5106256;28;20081;-66
2021/06/22 08:52:30;;;;;;;10.10;3.08;;;;;;;40.53;14.65;100303.88;5108121;28;20035;-62
2021/06/22 08:54:56;;;;;;;9.20;2.60;;;;;;;39.99;15.18;100267.97;5100321;28;20032;-64
2021/06/22 08:57:23;;;;;;;12.40;3.20;;;;;;;39.82;15.73;100293.81;5099816;28;20071;-64
2021/06/22 08:59:50;;;;;;;8.25;3.05;;;;;;;39.45;16.06;100285.25;5113342;28;20043;-63
2021/06/22 09:02:16;;;;;;;9.50;3.15;;;;;;;39.14;15.93;100285.75;5099478;28;20044;-62
2021/06/22 09:04:42;;;;;;;8.68;2.92;;;;;;;38.91;16.61;100282.75;5100692;28;20595;-62
2021/06/22 09:07:08;;;;;;;8.55;2.92;;;;;;;38.67;17.23;100283.66;5102392;28;20049;-65
2021/06/22 09:09:39;;;;;;;9.60;2.97;;;;;;;38.27;17.45;100253.16;5100081;28;20071;-63
2021/06/22 09:12:08;;;;;;;11.10;3.60;;;;;;;38.30;17.30;100282.44;5096083;28;20561;-63
2021/06/22 09:14:38;;;;;;;10.65;3.03;;;;;;;38.13;17.30;100275.41;5100787;28;20055;-63
2021/06/22 09:17:05;;;;;;;7.05;3.17;;;;;;;37.95;17.77;100274.19;5108483;28;20040;-64
2021/06/22 09:19:31;;;;;;;8.48;3.33;;;;;;;37.70;18.11;100250.19;5100315;28;20036;-64
2021/06/22 09:22:12;;;;;;;9.70;3.13;;;;;;;37.71;17.89;100279.78;5099879;28;20631;-63
2021/06/22 09:24:37;;;;;;;7.22;2.90;;;;;;;37.69;17.84;100284.84;5107306;28;20028;-62
2021/06/22 09:27:03;;;;;;;10.68;3.40;;;;;;;37.72;18.40;100281.44;5095586;28;20085;-64
2021/06/22 09:29:28;;;;;;;8.02;3.05;;;;;;;37.74;17.89;100277.25;5108238;28;20055;-63
2021/06/22 09:31:57;;;;;;;9.85;3.22;;;;;;;37.71;17.85;100290.97;5096712;28;20063;-66
2021/06/22 09:34:25;;;;;;;12.30;3.47;;;;;;;37.60;17.36;100279.88;5103440;28;20436;-63
2021/06/22 09:36:56;;;;;;;7.78;3.40;;;;;;;37.57;17.35;100268.47;5098296;28;20027;-66
2021/06/22 09:39:23;;;;;;;11.38;3.40;;;;;;;37.55;17.88;100279.13;5095443;28;20062;-66
2021/06/22 09:41:51;;;;;;;10.38;3.40;;;;;;;37.39;18.35;100275.63;5099683;28;20191;-65
2021/06/22 09:44:22;;;;;;;11.35;3.40;;;;;;;37.14;18.06;100252.38;5098666;28;20135;-64
2021/06/22 09:46:51;;;;;;;15.07;3.75;;;;;;;37.16;18.41;100259.31;5106223;28;20053;-64
2021/06/22 09:49:19;;;;;;;12.88;3.55;;;;;;;37.24;18.70;100260.66;5094075;28;20042;-64
2021/06/22 09:52:30;;;;;;;8.65;3.63;;;;;;;37.17;18.64;100266.56;5096441;28;20027;-65
2021/06/22 09:54:45;;;;;;;11.48;3.15;;;;;;;37.02;18.95;100264.75;5095303;28;20097;-64
2021/06/22 09:57:18;;;;;;;10.10;3.67;;;;;;;36.90;19.36;100267.06;5093382;28;20036;-66
2021/06/22 09:59:56;;;;;;;8.40;3.20;;;;;;;36.86;19.59;100268.75;5096352;28;20031;-66
2021/06/22 10:02:23;;;;;;;11.95;3.50;;;;;;;36.81;19.32;100254.84;5104847;28;20135;-65
2021/06/22 10:04:51;;;;;;;12.27;3.42;;;;;;;36.99;18.98;100270.88;5109064;28;20114;-67
2021/06/22 10:07:23;;;;;;;17.38;3.75;;;;;;;37.09;19.26;100269.16;5094422;28;20742;-64
2021/06/22 10:09:56;;;;;;;9.93;3.20;;;;;;;37.18;19.45;100265.44;5098974;28;20042;-63
2021/06/22 10:12:26;;;;;;;7.13;3.45;;;;;;;37.18;19.02;100265.44;5096864;28;20055;-65
2021/06/22 10:14:53;;;;;;;9.32;3.20;;;;;;;37.14;19.29;100263.56;5095155;28;20040;-66
2021/06/22 10:17:22;;;;;;;12.75;3.55;;;;;;;36.85;19.36;100211.28;5102550;28;20050;-64
2021/06/22 10:19:51;;;;;;;14.50;3.88;;;;;;;37.12;19.54;100249.88;5101427;28;20051;-67
2021/06/22 10:22:21;;;;;;;12.20;3.97;;;;;;;37.09;18.83;100242.09;5101693;28;20032;-67
2021/06/22 10:24:47;;;;;;;12.23;3.78;;;;;;;37.19;18.70;100258.75;5091931;28;20085;-68
2021/06/22 10:27:15;;;;;;;10.75;3.90;;;;;;;37.21;19.31;100252.88;5097977;28;20325;-65
2021/06/22 10:29:52;;;;;;;12.10;3.53;;;;;;;37.23;18.67;100252.56;5107547;28;20040;-65
2021/06/22 10:32:20;;;;;;;12.45;3.83;;;;;;;37.25;18.70;100250.31;5091875;28;20077;-64
2021/06/22 10:34:50;;;;;;;17.23;4.03;;;;;;;37.30;19.25;100253.91;5099046;28;20479;-66
2021/06/22 10:37:38;;;;;;;14.23;3.78;;;;;;;37.39;18.73;100247.69;5100098;28;20085;-65
2021/06/22 10:40:14;;;;;;;11.48;3.58;;;;;;;37.38;18.73;100251.59;5097313;28;20031;-69
2021/06/22 10:42:48;;;;;;;12.60;3.70;;;;;;;37.33;18.44;100244.94;5094173;28;20627;-64
2021/06/22 10:45:14;;;;;;;11.38;3.70;;;;;;;36.81;18.30;100162.78;5107202;28;20110;-63
2021/06/22 10:47:44;;;;;;;16.30;4.00;;;;;;;37.30;19.07;100251.09;5091554;28;20131;-64
2021/06/22 10:50:14;;;;;;;13.90;4.65;;;;;;;37.24;18.97;100249.50;5090211;28;20109;-68
2021/06/22 10:52:43;;;;;;;11.48;3.55;;;;;;;37.11;19.39;100248.22;5100775;28;20027;-65
2021/06/22 10:55:10;;;;;;;12.43;4.10;;;;;;;37.07;19.72;100247.13;5092761;28;20039;-66
2021/06/22 10:57:54;;;;;;;11.15;4.25;;;;;;;37.17;19.68;100237.84;5099726;28;20084;-65
2021/06/22 11:00:20;;;;;;;13.93;4.32;;;;;;;37.03;19.92;100226.53;5090110;28;20039;-63
2021/06/22 11:03:04;;;;;;;11.40;3.83;;;;;;;36.84;19.50;100206.81;5099401;28;20031;-65
2021/06/22 11:05:35;;;;;;;14.67;4.30;;;;;;;36.82;19.53;100226.66;5094729;28;20388;-67
2021/06/22 11:08:13;;;;;;;14.40;4.30;;;;;;;36.85;19.59;100245.59;5106472;28;20732;-65
2021/06/22 11:10:41;;;;;;;10.70;3.88;;;;;;;36.79;19.78;100224.47;5098725;28;20044;-68
2021/06/22 11:13:07;;;;;;;15.95;3.90;;;;;;;36.75;19.84;100235.34;5097145;28;20039;-63
2021/06/22 11:15:50;;;;;;;15.13;3.78;;;;;;;36.74;19.96;100244.84;5096658;28;20123;-67
2021/06/22 11:18:18;;;;;;;13.40;4.10;;;;;;;36.67;20.25;100230.41;5094295;28;20032;-65
2021/06/22 11:20:53;;;;;;;10.98;4.03;;;;;;;36.68;20.42;100229.28;5101553;28;20104;-68